x

Shp - Shell Point, Fl (shpf1) Weather Station

3:54am - Wed 20th Sep 2017 All times are CDT. -5 hours from GMT.

  • Wind
    7mph, 9mph gusts
  • Air Temp 78°f
  • Sea Pressure 1014.4mb
  • Shp - Shell Point, Fl
  • Shp - Shell Point, Fl

More Historic Weather Station data

Upgrade to MSW Pro to gain access to the past 30 days of data for over 8000 Wavebouys and Weather Stations around the globe.

Join

Comparision Forecast

View Surf forecast
   
Wed 09/20 3:54am 7 9 mph 1014.4mb 78f
3:48am 8 9 mph 1014.3mb 78f
2:54am 6 7 mph 1014.2mb 78f
2:48am 7 10 mph 1014.1mb 78f
1:54am 6 7 mph 1014.3mb 78f
1:48am 5 7 mph 1014.4mb 78f
12:54am 6 8 mph 1014.9mb 78f
Tue 09/19 11:54pm 3 5 mph 1015.3mb 79f
11:48pm 3 6 mph 1015.2mb 79f
10:54pm 6 8 mph 1014.9mb 79f
10:48pm 6 8 mph 1014.9mb 79f
9:54pm 5 6 mph 1014.8mb 80f
9:48pm 5 7 mph 1014.7mb 80f
8:54pm 7 9 mph 1014.1mb 81f
8:48pm 7 10 mph 1014.1mb 81f
7:54pm 7 10 mph 1014mb 81f
7:48pm 6 9 mph 1013.9mb 82f
6:54pm 7 8 mph 1013.5mb 81f
5:54pm 9 11 mph 1013.3mb 82f
5:48pm 9 10 mph 1013.3mb 82f
4:54pm 9 11 mph 1013mb 82f
4:48pm 9 11 mph 1013mb 82f
3:54pm 8 10 mph 1012.8mb 83f
3:48pm 6 8 mph 1012.7mb 84f
2:54pm 8 10 mph 1013.4mb 83f
2:48pm 8 10 mph 1013.5mb 82f
1:54pm 7 9 mph 1014mb 83f
1:48pm 8 11 mph 1014mb 83f
12:54pm 6 7 mph 1014.6mb 83f
12:48pm 5 6 mph 1014.7mb 83f
11:54am 8 10 mph 1015.2mb 84f
11:48am 8 9 mph 1015.3mb 84f
10:54am 3 7 mph 1016.1mb 80f
10:48am 3 5 mph 1016.1mb 80f
9:54am 3 5 mph 1016.3mb 79f
9:48am 3 14 mph 1016.3mb 80f
8:54am 1 2 mph 1016.2mb 79f
8:48am 1 2 mph 1016mb 79f
7:54am 1 3 mph 1015.5mb 77f
7:48am 1 3 mph 1015.6mb 77f
6:54am 2 2 mph 1015.1mb 75f
6:48am 2 3 mph 1015mb 75f
5:54am 1 2 mph 1014.6mb 74f
5:48am 1 2 mph 1014.6mb 74f
4:54am 1 2 mph 1014.1mb 75f
4:48am 1 2 mph 1014.1mb 76f
3:54am  -  2 mph 1013.6mb 76f
3:48am  -  2 mph 1013.7mb 76f
2:54am 6 6 mph 1013.5mb 76f
2:48am 6 8 mph 1013.5mb 76f
1:54am 5 6 mph 1013.8mb 76f
1:48am 3 6 mph 1013.8mb 76f
12:54am 3 6 mph 1014.2mb 76f
12:48am 6 7 mph 1014.3mb 76f
Mon 09/18 11:54pm 6 7 mph 1014.5mb 77f
11:48pm 6 8 mph 1014.5mb 77f
10:54pm 6 7 mph 1015mb 77f
10:48pm 5 6 mph 1014.9mb 78f
9:54pm 3 6 mph 1015mb 79f
9:48pm 3 5 mph 1014.9mb 79f
8:54pm 5 6 mph 1014.7mb 80f
8:48pm 5 7 mph 1014.7mb 80f
7:54pm 6 8 mph 1014.3mb 82f
7:48pm 7 8 mph 1014.3mb 82f
6:54pm 8 10 mph 1013.7mb 83f
6:48pm 7 10 mph 1013.7mb 83f
5:54pm 11 14 mph 1013.6mb 84f
5:48pm 11 14 mph 1013.6mb 84f
4:54pm 9 11 mph 1013.3mb 84f
4:48pm 9 11 mph 1013.3mb 84f
3:54pm 8 11 mph 1013.3mb 86f
3:48pm 10 13 mph 1013.3mb 85f
2:54pm 9 10 mph 1013.8mb 85f
2:48pm 8 9 mph 1013.9mb 86f
1:54pm 7 9 mph 1014.4mb 85f
1:48pm 8 9 mph 1014.4mb 86f
12:54pm 7 8 mph 1015.2mb 85f
12:48pm 7 8 mph 1015.3mb 85f
11:54am 6 7 mph 1016.2mb 83f
11:48am 6 8 mph 1016.3mb 83f
10:54am 7 9 mph 1016.7mb 81f
10:48am 7 8 mph 1016.8mb 81f
9:54am 3 6 mph 1017mb 83f
9:48am 5 6 mph 1017.1mb 83f
8:54am 2 5 mph 1016.7mb 79f
8:48am 3 5 mph 1016.7mb 78f
7:54am 3 6 mph 1016.3mb 74f
7:48am 3 6 mph 1016.3mb 73f
6:54am 3 5 mph 1016.1mb 71f
6:48am 2 3 mph 1016mb 71f
5:54am 2 5 mph 1015.6mb 72f
5:48am 2 3 mph 1015.5mb 72f
4:54am 3 5 mph 1015.1mb 73f
4:48am 5 6 mph 1015.1mb 73f
3:54am 3 6 mph 1014.8mb 74f
3:48am 3 5 mph 1014.7mb 74f
2:54am 5 6 mph 1014.9mb 74f
2:48am 3 6 mph 1015mb 74f
1:54am 5 6 mph 1015.4mb 74f
1:48am 3 6 mph 1015.5mb 74f
12:54am 6 7 mph 1015.8mb 75f
12:48am 5 7 mph 1015.7mb 76f
Sun 09/17 11:54pm 3 6 mph 1015.9mb 76f
11:48pm 3 5 mph 1015.9mb 76f
10:54pm 6 8 mph 1016.2mb 77f
10:48pm 6 8 mph 1016.1mb 77f
9:54pm 5 6 mph 1015.9mb 78f
9:48pm 3 6 mph 1016mb 78f
8:54pm 3 5 mph 1016mb 79f
7:54pm 2 2 mph 1015.5mb 81f
7:48pm 2 2 mph 1015.5mb 81f
6:54pm 3 3 mph 1015mb 83f
6:48pm 2 3 mph 1015mb 84f
5:54pm 3 7 mph 1014.7mb 87f
5:48pm 6 9 mph 1014.6mb 88f
4:54pm 6 8 mph 1014.5mb 89f
4:48pm 7 10 mph 1014.5mb 89f
3:54pm 5 8 mph 1014.7mb 87f
3:48pm 5 7 mph 1014.8mb 88f
2:54pm 6 7 mph 1015.1mb 87f
2:48pm 6 7 mph 1015.2mb 87f
1:54pm 5 7 mph 1015.8mb 86f
12:54pm 5 6 mph 1016.5mb 85f
11:54am 5 6 mph 1017.5mb 82f
11:48am 5 6 mph 1017.5mb 82f
10:54am 5 6 mph 1018mb 82f
10:48am 3 6 mph 1018mb 83f
9:54am 3 6 mph 1018.4mb 82f
9:48am 2 6 mph 1018.4mb 82f